sensor_id;sensor_type;location;lat;lon;timestamp;P1;durP1;ratioP1;P2;durP2;ratioP2
63818;SDS011;49970;54.976;73.248;2024-03-06T00:00:25;62.42;;;28.55;;
63818;SDS011;49970;54.976;73.248;2024-03-06T00:02:52;59.58;;;28.60;;
63818;SDS011;49970;54.976;73.248;2024-03-06T00:05:18;57.70;;;30.00;;
63818;SDS011;49970;54.976;73.248;2024-03-06T00:07:44;49.90;;;26.50;;
63818;SDS011;49970;54.976;73.248;2024-03-06T00:10:11;55.13;;;27.05;;
63818;SDS011;49970;54.976;73.248;2024-03-06T00:12:38;58.25;;;27.77;;
63818;SDS011;49970;54.976;73.248;2024-03-06T00:15:04;59.35;;;28.42;;
63818;SDS011;49970;54.976;73.248;2024-03-06T00:17:31;62.00;;;29.45;;
63818;SDS011;49970;54.976;73.248;2024-03-06T00:19:57;55.00;;;30.27;;
63818;SDS011;49970;54.976;73.248;2024-03-06T00:22:24;54.67;;;27.58;;
63818;SDS011;49970;54.976;73.248;2024-03-06T00:24:51;50.28;;;27.40;;
63818;SDS011;49970;54.976;73.248;2024-03-06T00:27:17;54.63;;;28.98;;
63818;SDS011;49970;54.976;73.248;2024-03-06T00:29:44;57.75;;;30.15;;
63818;SDS011;49970;54.976;73.248;2024-03-06T00:32:10;57.78;;;28.23;;
63818;SDS011;49970;54.976;73.248;2024-03-06T00:34:37;66.90;;;30.80;;
63818;SDS011;49970;54.976;73.248;2024-03-06T00:37:03;64.60;;;28.40;;
63818;SDS011;49970;54.976;73.248;2024-03-06T00:39:30;57.38;;;29.65;;
63818;SDS011;49970;54.976;73.248;2024-03-06T00:41:56;65.43;;;29.98;;
63818;SDS011;49970;54.976;73.248;2024-03-06T00:44:22;59.80;;;29.80;;
63818;SDS011;49970;54.976;73.248;2024-03-06T00:46:49;57.47;;;29.02;;
63818;SDS011;49970;54.976;73.248;2024-03-06T00:49:15;64.82;;;28.65;;
63818;SDS011;49970;54.976;73.248;2024-03-06T00:51:42;58.38;;;28.10;;
63818;SDS011;49970;54.976;73.248;2024-03-06T00:54:08;56.25;;;27.75;;
63818;SDS011;49970;54.976;73.248;2024-03-06T00:56:40;48.65;;;26.45;;
63818;SDS011;49970;54.976;73.248;2024-03-06T00:59:06;53.15;;;28.80;;
63818;SDS011;49970;54.976;73.248;2024-03-06T01:01:33;58.33;;;28.63;;
63818;SDS011;49970;54.976;73.248;2024-03-06T01:03:59;57.22;;;27.73;;
63818;SDS011;49970;54.976;73.248;2024-03-06T01:06:26;60.25;;;29.70;;
63818;SDS011;49970;54.976;73.248;2024-03-06T01:08:52;59.03;;;28.35;;
63818;SDS011;49970;54.976;73.248;2024-03-06T01:11:38;71.22;;;30.13;;
63818;SDS011;49970;54.976;73.248;2024-03-06T01:14:05;57.53;;;29.75;;
63818;SDS011;49970;54.976;73.248;2024-03-06T01:16:32;64.03;;;30.85;;
63818;SDS011;49970;54.976;73.248;2024-03-06T01:18:58;62.13;;;29.17;;
63818;SDS011;49970;54.976;73.248;2024-03-06T01:21:24;64.50;;;30.13;;
63818;SDS011;49970;54.976;73.248;2024-03-06T01:23:51;59.58;;;29.17;;
63818;SDS011;49970;54.976;73.248;2024-03-06T01:26:17;60.13;;;31.83;;
63818;SDS011;49970;54.976;73.248;2024-03-06T01:28:43;63.60;;;31.85;;
63818;SDS011;49970;54.976;73.248;2024-03-06T01:31:10;56.05;;;28.33;;
63818;SDS011;49970;54.976;73.248;2024-03-06T01:33:36;64.88;;;31.90;;
63818;SDS011;49970;54.976;73.248;2024-03-06T01:36:03;66.53;;;31.83;;
63818;SDS011;49970;54.976;73.248;2024-03-06T01:38:30;63.55;;;32.78;;
63818;SDS011;49970;54.976;73.248;2024-03-06T01:40:57;67.28;;;33.53;;
63818;SDS011;49970;54.976;73.248;2024-03-06T01:43:23;60.45;;;31.17;;
63818;SDS011;49970;54.976;73.248;2024-03-06T01:45:51;59.50;;;31.13;;
63818;SDS011;49970;54.976;73.248;2024-03-06T01:48:22;61.45;;;30.70;;
63818;SDS011;49970;54.976;73.248;2024-03-06T01:50:52;62.50;;;31.60;;
63818;SDS011;49970;54.976;73.248;2024-03-06T01:53:23;65.22;;;33.45;;
63818;SDS011;49970;54.976;73.248;2024-03-06T01:55:53;71.20;;;33.47;;
63818;SDS011;49970;54.976;73.248;2024-03-06T01:58:20;65.80;;;33.90;;
63818;SDS011;49970;54.976;73.248;2024-03-06T02:00:47;71.82;;;32.38;;
63818;SDS011;49970;54.976;73.248;2024-03-06T02:03:16;59.63;;;32.28;;
63818;SDS011;49970;54.976;73.248;2024-03-06T02:05:43;65.68;;;33.40;;
63818;SDS011;49970;54.976;73.248;2024-03-06T02:08:09;63.10;;;31.45;;
63818;SDS011;49970;54.976;73.248;2024-03-06T02:10:36;66.00;;;35.08;;
63818;SDS011;49970;54.976;73.248;2024-03-06T02:13:02;60.10;;;31.58;;
63818;SDS011;49970;54.976;73.248;2024-03-06T02:15:29;65.53;;;32.28;;
63818;SDS011;49970;54.976;73.248;2024-03-06T02:17:56;70.18;;;35.22;;
63818;SDS011;49970;54.976;73.248;2024-03-06T02:20:23;74.13;;;34.08;;
63818;SDS011;49970;54.976;73.248;2024-03-06T02:22:50;62.30;;;31.73;;
63818;SDS011;49970;54.976;73.248;2024-03-06T02:25:17;68.10;;;33.65;;
63818;SDS011;49970;54.976;73.248;2024-03-06T02:27:46;60.42;;;30.67;;
63818;SDS011;49970;54.976;73.248;2024-03-06T02:30:13;75.65;;;35.17;;
63818;SDS011;49970;54.976;73.248;2024-03-06T02:32:40;66.28;;;32.83;;
63818;SDS011;49970;54.976;73.248;2024-03-06T02:35:06;68.05;;;32.33;;
63818;SDS011;49970;54.976;73.248;2024-03-06T02:37:34;73.10;;;34.72;;
63818;SDS011;49970;54.976;73.248;2024-03-06T02:40:00;80.75;;;34.65;;
63818;SDS011;49970;54.976;73.248;2024-03-06T02:42:27;70.82;;;34.75;;
63818;SDS011;49970;54.976;73.248;2024-03-06T02:44:54;73.60;;;34.55;;
63818;SDS011;49970;54.976;73.248;2024-03-06T02:47:21;70.35;;;34.15;;
63818;SDS011;49970;54.976;73.248;2024-03-06T02:49:47;75.95;;;32.22;;
63818;SDS011;49970;54.976;73.248;2024-03-06T02:52:14;67.07;;;30.20;;
63818;SDS011;49970;54.976;73.248;2024-03-06T02:54:40;63.78;;;30.60;;
63818;SDS011;49970;54.976;73.248;2024-03-06T02:57:08;62.38;;;31.17;;
63818;SDS011;49970;54.976;73.248;2024-03-06T02:59:34;67.22;;;31.08;;
63818;SDS011;49970;54.976;73.248;2024-03-06T03:02:01;54.78;;;29.38;;
63818;SDS011;49970;54.976;73.248;2024-03-06T03:04:29;71.97;;;31.35;;
63818;SDS011;49970;54.976;73.248;2024-03-06T03:06:55;62.40;;;31.42;;
63818;SDS011;49970;54.976;73.248;2024-03-06T03:09:22;155.65;;;56.33;;
63818;SDS011;49970;54.976;73.248;2024-03-06T03:11:49;150.15;;;55.75;;
63818;SDS011;49970;54.976;73.248;2024-03-06T03:14:15;94.63;;;40.17;;
63818;SDS011;49970;54.976;73.248;2024-03-06T03:16:42;68.35;;;34.75;;
63818;SDS011;49970;54.976;73.248;2024-03-06T03:19:08;61.10;;;31.45;;
63818;SDS011;49970;54.976;73.248;2024-03-06T03:21:35;59.30;;;29.25;;
63818;SDS011;49970;54.976;73.248;2024-03-06T03:24:01;55.38;;;28.73;;
63818;SDS011;49970;54.976;73.248;2024-03-06T03:26:28;60.72;;;28.17;;
63818;SDS011;49970;54.976;73.248;2024-03-06T03:28:55;53.17;;;28.55;;
63818;SDS011;49970;54.976;73.248;2024-03-06T03:31:21;48.80;;;26.77;;
63818;SDS011;49970;54.976;73.248;2024-03-06T03:33:47;51.80;;;27.40;;
63818;SDS011;49970;54.976;73.248;2024-03-06T03:36:14;53.65;;;26.92;;
63818;SDS011;49970;54.976;73.248;2024-03-06T03:38:40;60.47;;;30.08;;
63818;SDS011;49970;54.976;73.248;2024-03-06T03:41:07;64.63;;;27.95;;
63818;SDS011;49970;54.976;73.248;2024-03-06T03:43:42;59.47;;;28.83;;
63818;SDS011;49970;54.976;73.248;2024-03-06T03:46:08;59.90;;;29.17;;
63818;SDS011;49970;54.976;73.248;2024-03-06T03:48:35;58.03;;;29.08;;
63818;SDS011;49970;54.976;73.248;2024-03-06T03:51:03;59.63;;;28.40;;
63818;SDS011;49970;54.976;73.248;2024-03-06T03:53:30;52.75;;;28.20;;
63818;SDS011;49970;54.976;73.248;2024-03-06T03:55:57;68.82;;;32.83;;
63818;SDS011;49970;54.976;73.248;2024-03-06T03:58:23;67.25;;;31.35;;
63818;SDS011;49970;54.976;73.248;2024-03-06T04:00:49;66.95;;;31.80;;
63818;SDS011;49970;54.976;73.248;2024-03-06T04:03:21;61.17;;;28.65;;
63818;SDS011;49970;54.976;73.248;2024-03-06T04:05:48;64.38;;;29.17;;
63818;SDS011;49970;54.976;73.248;2024-03-06T04:09:19;58.33;;;29.33;;
63818;SDS011;49970;54.976;73.248;2024-03-06T04:12:49;57.25;;;27.95;;
63818;SDS011;49970;54.976;73.248;2024-03-06T04:16:21;63.17;;;28.85;;
63818;SDS011;49970;54.976;73.248;2024-03-06T04:19:51;64.22;;;33.25;;
63818;SDS011;49970;54.976;73.248;2024-03-06T04:23:23;59.53;;;28.27;;
63818;SDS011;49970;54.976;73.248;2024-03-06T04:26:53;56.85;;;27.42;;
63818;SDS011;49970;54.976;73.248;2024-03-06T04:30:24;57.67;;;28.02;;
63818;SDS011;49970;54.976;73.248;2024-03-06T04:33:54;55.95;;;29.38;;
63818;SDS011;49970;54.976;73.248;2024-03-06T04:37:25;67.28;;;30.52;;
63818;SDS011;49970;54.976;73.248;2024-03-06T04:40:56;73.30;;;33.05;;
63818;SDS011;49970;54.976;73.248;2024-03-06T04:44:28;71.07;;;32.63;;
63818;SDS011;49970;54.976;73.248;2024-03-06T04:47:11;69.90;;;32.17;;
63818;SDS011;49970;54.976;73.248;2024-03-06T04:49:37;80.55;;;36.25;;
63818;SDS011;49970;54.976;73.248;2024-03-06T04:52:04;79.68;;;35.78;;
63818;SDS011;49970;54.976;73.248;2024-03-06T04:54:30;81.15;;;35.70;;
63818;SDS011;49970;54.976;73.248;2024-03-06T04:56:57;82.95;;;35.58;;
63818;SDS011;49970;54.976;73.248;2024-03-06T04:59:23;77.50;;;34.78;;
63818;SDS011;49970;54.976;73.248;2024-03-06T05:01:49;74.57;;;34.53;;
63818;SDS011;49970;54.976;73.248;2024-03-06T05:04:16;76.18;;;33.63;;
63818;SDS011;49970;54.976;73.248;2024-03-06T05:06:43;82.75;;;34.45;;
63818;SDS011;49970;54.976;73.248;2024-03-06T05:09:09;86.95;;;34.10;;
63818;SDS011;49970;54.976;73.248;2024-03-06T05:11:37;80.57;;;33.28;;
63818;SDS011;49970;54.976;73.248;2024-03-06T05:14:05;89.75;;;34.53;;
63818;SDS011;49970;54.976;73.248;2024-03-06T05:16:31;82.53;;;34.47;;
63818;SDS011;49970;54.976;73.248;2024-03-06T05:18:58;75.25;;;32.67;;
63818;SDS011;49970;54.976;73.248;2024-03-06T05:21:27;76.43;;;32.80;;
63818;SDS011;49970;54.976;73.248;2024-03-06T05:23:53;80.07;;;35.45;;
63818;SDS011;49970;54.976;73.248;2024-03-06T05:26:20;87.70;;;33.55;;
63818;SDS011;49970;54.976;73.248;2024-03-06T05:28:46;76.65;;;31.13;;
63818;SDS011;49970;54.976;73.248;2024-03-06T05:31:17;63.70;;;31.33;;
63818;SDS011;49970;54.976;73.248;2024-03-06T05:33:49;70.32;;;30.92;;
63818;SDS011;49970;54.976;73.248;2024-03-06T05:36:15;71.60;;;31.70;;
63818;SDS011;49970;54.976;73.248;2024-03-06T05:38:44;73.20;;;31.73;;
63818;SDS011;49970;54.976;73.248;2024-03-06T05:41:11;65.85;;;31.45;;
63818;SDS011;49970;54.976;73.248;2024-03-06T05:43:37;68.43;;;34.15;;
63818;SDS011;49970;54.976;73.248;2024-03-06T05:46:04;72.88;;;36.88;;
63818;SDS011;49970;54.976;73.248;2024-03-06T05:48:31;65.00;;;34.42;;
63818;SDS011;49970;54.976;73.248;2024-03-06T05:50:59;75.78;;;32.80;;
63818;SDS011;49970;54.976;73.248;2024-03-06T05:53:25;62.53;;;32.10;;
63818;SDS011;49970;54.976;73.248;2024-03-06T05:55:52;58.65;;;32.15;;
63818;SDS011;49970;54.976;73.248;2024-03-06T05:58:18;64.47;;;31.65;;
63818;SDS011;49970;54.976;73.248;2024-03-06T06:00:45;62.92;;;29.35;;
63818;SDS011;49970;54.976;73.248;2024-03-06T06:03:12;66.25;;;31.40;;
63818;SDS011;49970;54.976;73.248;2024-03-06T06:05:38;67.10;;;30.20;;
63818;SDS011;49970;54.976;73.248;2024-03-06T06:08:06;59.75;;;29.50;;
63818;SDS011;49970;54.976;73.248;2024-03-06T06:10:32;63.95;;;28.65;;
63818;SDS011;49970;54.976;73.248;2024-03-06T06:14:28;62.55;;;30.40;;
63818;SDS011;49970;54.976;73.248;2024-03-06T06:18:24;66.95;;;33.35;;
63818;SDS011;49970;54.976;73.248;2024-03-06T06:22:20;56.65;;;28.20;;
63818;SDS011;49970;54.976;73.248;2024-03-06T06:25:53;70.07;;;31.20;;
63818;SDS011;49970;54.976;73.248;2024-03-06T06:29:29;61.83;;;29.60;;
63818;SDS011;49970;54.976;73.248;2024-03-06T06:35:52;69.15;;;32.67;;
63818;SDS011;49970;54.976;73.248;2024-03-06T06:38:19;63.47;;;29.48;;
63818;SDS011;49970;54.976;73.248;2024-03-06T06:40:46;61.13;;;30.65;;
63818;SDS011;49970;54.976;73.248;2024-03-06T06:43:13;71.55;;;32.80;;
63818;SDS011;49970;54.976;73.248;2024-03-06T06:45:41;67.88;;;32.80;;
63818;SDS011;49970;54.976;73.248;2024-03-06T06:48:07;74.88;;;33.83;;
63818;SDS011;49970;54.976;73.248;2024-03-06T06:50:35;78.93;;;35.95;;
63818;SDS011;49970;54.976;73.248;2024-03-06T06:53:02;65.32;;;34.17;;
63818;SDS011;49970;54.976;73.248;2024-03-06T06:55:28;66.40;;;33.22;;
63818;SDS011;49970;54.976;73.248;2024-03-06T06:57:54;73.82;;;35.83;;
63818;SDS011;49970;54.976;73.248;2024-03-06T07:00:21;65.00;;;33.88;;
63818;SDS011;49970;54.976;73.248;2024-03-06T07:02:48;73.32;;;33.25;;
63818;SDS011;49970;54.976;73.248;2024-03-06T07:05:15;65.80;;;33.65;;
63818;SDS011;49970;54.976;73.248;2024-03-06T07:07:42;69.68;;;33.15;;
63818;SDS011;49970;54.976;73.248;2024-03-06T07:10:08;75.68;;;37.65;;
63818;SDS011;49970;54.976;73.248;2024-03-06T07:12:35;70.95;;;33.58;;
63818;SDS011;49970;54.976;73.248;2024-03-06T07:15:02;72.00;;;33.38;;
63818;SDS011;49970;54.976;73.248;2024-03-06T07:17:28;63.33;;;32.72;;
63818;SDS011;49970;54.976;73.248;2024-03-06T07:19:55;61.97;;;33.13;;
63818;SDS011;49970;54.976;73.248;2024-03-06T07:22:22;67.50;;;34.60;;
63818;SDS011;49970;54.976;73.248;2024-03-06T07:24:49;75.68;;;38.95;;
63818;SDS011;49970;54.976;73.248;2024-03-06T07:27:16;75.75;;;39.42;;
63818;SDS011;49970;54.976;73.248;2024-03-06T07:31:11;76.10;;;38.05;;
63818;SDS011;49970;54.976;73.248;2024-03-06T07:34:41;77.82;;;36.17;;
63818;SDS011;49970;54.976;73.248;2024-03-06T07:38:12;68.63;;;33.80;;
63818;SDS011;49970;54.976;73.248;2024-03-06T07:40:39;67.72;;;34.72;;
63818;SDS011;49970;54.976;73.248;2024-03-06T07:43:05;70.88;;;32.97;;
63818;SDS011;49970;54.976;73.248;2024-03-06T07:45:32;70.97;;;32.67;;
63818;SDS011;49970;54.976;73.248;2024-03-06T07:47:58;75.03;;;34.13;;
63818;SDS011;49970;54.976;73.248;2024-03-06T07:50:40;69.53;;;31.70;;
63818;SDS011;49970;54.976;73.248;2024-03-06T07:53:07;65.80;;;31.67;;
63818;SDS011;49970;54.976;73.248;2024-03-06T07:55:33;65.95;;;30.77;;
63818;SDS011;49970;54.976;73.248;2024-03-06T07:58:00;74.93;;;33.42;;
63818;SDS011;49970;54.976;73.248;2024-03-06T08:00:26;76.88;;;34.63;;
63818;SDS011;49970;54.976;73.248;2024-03-06T08:02:53;74.65;;;34.50;;
63818;SDS011;49970;54.976;73.248;2024-03-06T08:05:19;75.53;;;32.83;;
63818;SDS011;49970;54.976;73.248;2024-03-06T08:07:47;69.75;;;33.97;;
63818;SDS011;49970;54.976;73.248;2024-03-06T08:10:14;66.38;;;32.50;;
63818;SDS011;49970;54.976;73.248;2024-03-06T08:12:41;64.70;;;33.45;;
63818;SDS011;49970;54.976;73.248;2024-03-06T08:15:09;77.78;;;36.55;;
63818;SDS011;49970;54.976;73.248;2024-03-06T08:18:38;67.20;;;31.80;;
63818;SDS011;49970;54.976;73.248;2024-03-06T08:22:10;73.38;;;35.25;;
63818;SDS011;49970;54.976;73.248;2024-03-06T08:25:40;78.90;;;37.03;;
63818;SDS011;49970;54.976;73.248;2024-03-06T08:29:12;70.47;;;34.53;;
63818;SDS011;49970;54.976;73.248;2024-03-06T08:32:42;77.57;;;34.65;;
63818;SDS011;49970;54.976;73.248;2024-03-06T08:35:10;69.18;;;34.80;;
63818;SDS011;49970;54.976;73.248;2024-03-06T08:37:39;77.30;;;36.63;;
63818;SDS011;49970;54.976;73.248;2024-03-06T08:40:06;80.35;;;36.28;;
63818;SDS011;49970;54.976;73.248;2024-03-06T08:42:33;68.25;;;32.88;;
63818;SDS011;49970;54.976;73.248;2024-03-06T08:44:59;72.40;;;34.42;;
63818;SDS011;49970;54.976;73.248;2024-03-06T08:47:26;77.00;;;34.30;;
63818;SDS011;49970;54.976;73.248;2024-03-06T08:49:52;68.00;;;32.92;;
63818;SDS011;49970;54.976;73.248;2024-03-06T08:52:19;64.28;;;32.38;;
63818;SDS011;49970;54.976;73.248;2024-03-06T08:54:46;59.97;;;31.23;;
63818;SDS011;49970;54.976;73.248;2024-03-06T08:57:13;65.95;;;32.28;;
63818;SDS011;49970;54.976;73.248;2024-03-06T08:59:39;64.93;;;33.13;;
63818;SDS011;49970;54.976;73.248;2024-03-06T09:02:15;67.80;;;31.75;;
63818;SDS011;49970;54.976;73.248;2024-03-06T09:04:44;60.47;;;31.10;;
63818;SDS011;49970;54.976;73.248;2024-03-06T09:07:12;68.75;;;32.95;;
63818;SDS011;49970;54.976;73.248;2024-03-06T09:09:39;57.10;;;30.70;;
63818;SDS011;49970;54.976;73.248;2024-03-06T09:12:07;59.72;;;30.98;;
63818;SDS011;49970;54.976;73.248;2024-03-06T09:14:38;72.03;;;33.72;;
63818;SDS011;49970;54.976;73.248;2024-03-06T09:17:05;70.55;;;32.72;;
63818;SDS011;49970;54.976;73.248;2024-03-06T09:19:32;63.13;;;31.23;;
63818;SDS011;49970;54.976;73.248;2024-03-06T09:21:59;71.22;;;33.72;;
63818;SDS011;49970;54.976;73.248;2024-03-06T09:24:25;73.43;;;32.85;;
63818;SDS011;49970;54.976;73.248;2024-03-06T09:26:52;61.85;;;29.80;;
63818;SDS011;49970;54.976;73.248;2024-03-06T09:30:49;83.32;;;30.98;;
63818;SDS011;49970;54.976;73.248;2024-03-06T09:33:56;61.80;;;32.40;;
63818;SDS011;49970;54.976;73.248;2024-03-06T09:36:23;55.90;;;29.45;;
63818;SDS011;49970;54.976;73.248;2024-03-06T09:38:51;61.20;;;31.77;;
63818;SDS011;49970;54.976;73.248;2024-03-06T09:41:18;68.05;;;33.35;;
63818;SDS011;49970;54.976;73.248;2024-03-06T09:43:45;65.68;;;30.92;;
63818;SDS011;49970;54.976;73.248;2024-03-06T09:46:11;66.38;;;31.40;;
63818;SDS011;49970;54.976;73.248;2024-03-06T09:48:38;69.97;;;31.77;;
63818;SDS011;49970;54.976;73.248;2024-03-06T09:51:12;65.22;;;32.42;;
63818;SDS011;49970;54.976;73.248;2024-03-06T09:53:39;87.10;;;32.55;;
63818;SDS011;49970;54.976;73.248;2024-03-06T09:56:07;74.47;;;33.97;;
63818;SDS011;49970;54.976;73.248;2024-03-06T09:58:35;65.82;;;32.97;;
63818;SDS011;49970;54.976;73.248;2024-03-06T10:01:01;74.88;;;34.20;;
63818;SDS011;49970;54.976;73.248;2024-03-06T10:03:29;66.95;;;32.70;;
63818;SDS011;49970;54.976;73.248;2024-03-06T10:05:56;71.10;;;33.63;;
63818;SDS011;49970;54.976;73.248;2024-03-06T10:08:22;60.38;;;32.10;;
63818;SDS011;49970;54.976;73.248;2024-03-06T10:10:52;66.88;;;33.10;;
63818;SDS011;49970;54.976;73.248;2024-03-06T10:13:25;75.50;;;32.30;;
63818;SDS011;49970;54.976;73.248;2024-03-06T10:16:10;67.93;;;33.38;;
63818;SDS011;49970;54.976;73.248;2024-03-06T10:18:37;68.05;;;33.60;;
63818;SDS011;49970;54.976;73.248;2024-03-06T10:21:05;66.85;;;32.80;;
63818;SDS011;49970;54.976;73.248;2024-03-06T10:23:32;71.03;;;33.13;;
63818;SDS011;49970;54.976;73.248;2024-03-06T10:25:58;70.40;;;35.17;;
63818;SDS011;49970;54.976;73.248;2024-03-06T10:28:25;68.78;;;34.28;;
63818;SDS011;49970;54.976;73.248;2024-03-06T10:31:02;67.25;;;35.47;;
63818;SDS011;49970;54.976;73.248;2024-03-06T10:33:33;69.85;;;33.40;;
63818;SDS011;49970;54.976;73.248;2024-03-06T10:36:00;76.63;;;32.78;;
63818;SDS011;49970;54.976;73.248;2024-03-06T10:38:27;76.45;;;33.50;;
63818;SDS011;49970;54.976;73.248;2024-03-06T10:41:02;61.47;;;32.22;;
63818;SDS011;49970;54.976;73.248;2024-03-06T10:43:29;69.97;;;32.55;;
63818;SDS011;49970;54.976;73.248;2024-03-06T10:46:00;69.22;;;33.47;;
63818;SDS011;49970;54.976;73.248;2024-03-06T10:48:27;69.90;;;33.10;;
63818;SDS011;49970;54.976;73.248;2024-03-06T10:50:54;65.80;;;33.28;;
63818;SDS011;49970;54.976;73.248;2024-03-06T10:53:23;63.60;;;33.15;;
63818;SDS011;49970;54.976;73.248;2024-03-06T10:55:52;65.13;;;34.17;;
63818;SDS011;49970;54.976;73.248;2024-03-06T10:58:21;66.10;;;34.15;;
63818;SDS011;49970;54.976;73.248;2024-03-06T11:00:48;64.18;;;32.33;;
63818;SDS011;49970;54.976;73.248;2024-03-06T11:03:16;70.47;;;34.45;;
63818;SDS011;49970;54.976;73.248;2024-03-06T11:05:43;77.00;;;35.83;;
63818;SDS011;49970;54.976;73.248;2024-03-06T11:08:13;76.65;;;35.10;;
63818;SDS011;49970;54.976;73.248;2024-03-06T11:11:19;72.40;;;33.35;;
63818;SDS011;49970;54.976;73.248;2024-03-06T11:13:50;76.63;;;35.72;;
63818;SDS011;49970;54.976;73.248;2024-03-06T11:16:27;73.30;;;33.17;;
63818;SDS011;49970;54.976;73.248;2024-03-06T11:19:06;80.18;;;35.45;;
63818;SDS011;49970;54.976;73.248;2024-03-06T11:21:33;71.05;;;36.50;;
63818;SDS011;49970;54.976;73.248;2024-03-06T11:29:23;68.00;;;34.53;;
63818;SDS011;49970;54.976;73.248;2024-03-06T11:32:06;77.47;;;37.30;;
63818;SDS011;49970;54.976;73.248;2024-03-06T11:34:34;88.30;;;40.72;;
63818;SDS011;49970;54.976;73.248;2024-03-06T11:37:08;70.72;;;36.33;;
63818;SDS011;49970;54.976;73.248;2024-03-06T11:39:38;90.03;;;42.80;;
63818;SDS011;49970;54.976;73.248;2024-03-06T11:42:06;81.30;;;39.70;;
63818;SDS011;49970;54.976;73.248;2024-03-06T11:44:36;93.93;;;39.20;;
63818;SDS011;49970;54.976;73.248;2024-03-06T11:47:03;66.63;;;35.85;;
63818;SDS011;49970;54.976;73.248;2024-03-06T11:49:33;74.32;;;35.38;;
63818;SDS011;49970;54.976;73.248;2024-03-06T11:52:00;68.57;;;37.10;;
63818;SDS011;49970;54.976;73.248;2024-03-06T11:54:30;82.32;;;38.33;;
63818;SDS011;49970;54.976;73.248;2024-03-06T11:56:58;93.93;;;42.35;;
63818;SDS011;49970;54.976;73.248;2024-03-06T11:59:29;70.95;;;35.78;;
63818;SDS011;49970;54.976;73.248;2024-03-06T12:01:58;77.85;;;38.10;;
63818;SDS011;49970;54.976;73.248;2024-03-06T12:04:29;81.43;;;38.10;;
63818;SDS011;49970;54.976;73.248;2024-03-06T12:07:59;95.97;;;39.33;;
63818;SDS011;49970;54.976;73.248;2024-03-06T12:10:26;77.28;;;36.80;;
63818;SDS011;49970;54.976;73.248;2024-03-06T12:12:52;75.53;;;37.25;;
63818;SDS011;49970;54.976;73.248;2024-03-06T12:15:19;75.18;;;37.10;;
63818;SDS011;49970;54.976;73.248;2024-03-06T12:18:05;83.82;;;39.58;;
63818;SDS011;49970;54.976;73.248;2024-03-06T12:20:51;84.50;;;37.53;;
63818;SDS011;49970;54.976;73.248;2024-03-06T12:23:38;78.57;;;38.13;;
63818;SDS011;49970;54.976;73.248;2024-03-06T12:27:21;81.88;;;40.03;;
63818;SDS011;49970;54.976;73.248;2024-03-06T12:29:55;88.35;;;39.58;;
63818;SDS011;49970;54.976;73.248;2024-03-06T12:32:23;80.85;;;38.33;;
63818;SDS011;49970;54.976;73.248;2024-03-06T12:34:57;88.60;;;38.33;;
63818;SDS011;49970;54.976;73.248;2024-03-06T12:37:31;88.18;;;40.33;;
63818;SDS011;49970;54.976;73.248;2024-03-06T12:40:02;85.05;;;40.35;;
63818;SDS011;49970;54.976;73.248;2024-03-06T12:42:43;83.45;;;39.42;;
63818;SDS011;49970;54.976;73.248;2024-03-06T12:47:57;74.57;;;34.05;;
63818;SDS011;49970;54.976;73.248;2024-03-06T12:50:27;88.30;;;39.75;;
63818;SDS011;49970;54.976;73.248;2024-03-06T12:53:00;75.85;;;36.53;;
63818;SDS011;49970;54.976;73.248;2024-03-06T12:56:00;83.30;;;39.97;;
63818;SDS011;49970;54.976;73.248;2024-03-06T12:58:42;84.60;;;39.10;;
63818;SDS011;49970;54.976;73.248;2024-03-06T13:02:14;82.47;;;39.45;;
63818;SDS011;49970;54.976;73.248;2024-03-06T13:05:46;85.57;;;40.28;;
63818;SDS011;49970;54.976;73.248;2024-03-06T13:09:42;84.85;;;40.67;;
63818;SDS011;49970;54.976;73.248;2024-03-06T13:13:55;84.15;;;41.25;;
63818;SDS011;49970;54.976;73.248;2024-03-06T13:17:51;88.13;;;40.60;;
63818;SDS011;49970;54.976;73.248;2024-03-06T13:20:18;98.93;;;45.22;;
63818;SDS011;49970;54.976;73.248;2024-03-06T13:22:45;91.32;;;44.97;;
63818;SDS011;49970;54.976;73.248;2024-03-06T13:25:11;113.82;;;51.85;;
63818;SDS011;49970;54.976;73.248;2024-03-06T13:28:43;100.97;;;48.13;;
63818;SDS011;49970;54.976;73.248;2024-03-06T13:31:09;92.38;;;42.85;;
63818;SDS011;49970;54.976;73.248;2024-03-06T13:33:36;87.53;;;41.53;;
63818;SDS011;49970;54.976;73.248;2024-03-06T13:36:02;91.88;;;47.22;;
63818;SDS011;49970;54.976;73.248;2024-03-06T13:38:29;96.38;;;46.05;;
63818;SDS011;49970;54.976;73.248;2024-03-06T13:40:56;121.30;;;61.17;;
63818;SDS011;49970;54.976;73.248;2024-03-06T13:43:42;116.78;;;48.45;;
63818;SDS011;49970;54.976;73.248;2024-03-06T13:46:09;145.63;;;66.72;;
63818;SDS011;49970;54.976;73.248;2024-03-06T13:48:35;179.20;;;82.57;;
63818;SDS011;49970;54.976;73.248;2024-03-06T13:51:12;170.68;;;79.78;;
63818;SDS011;49970;54.976;73.248;2024-03-06T13:53:54;156.50;;;76.00;;
63818;SDS011;49970;54.976;73.248;2024-03-06T13:56:21;198.50;;;96.22;;
63818;SDS011;49970;54.976;73.248;2024-03-06T13:58:47;167.52;;;77.13;;
63818;SDS011;49970;54.976;73.248;2024-03-06T14:01:14;160.40;;;76.43;;
63818;SDS011;49970;54.976;73.248;2024-03-06T14:03:40;164.93;;;83.63;;
63818;SDS011;49970;54.976;73.248;2024-03-06T14:06:07;193.48;;;93.50;;
63818;SDS011;49970;54.976;73.248;2024-03-06T14:08:35;178.35;;;81.25;;
63818;SDS011;49970;54.976;73.248;2024-03-06T14:11:03;134.30;;;64.05;;
63818;SDS011;49970;54.976;73.248;2024-03-06T14:13:32;128.00;;;59.92;;
63818;SDS011;49970;54.976;73.248;2024-03-06T14:15:59;108.78;;;47.78;;
63818;SDS011;49970;54.976;73.248;2024-03-06T14:18:26;114.00;;;48.15;;
63818;SDS011;49970;54.976;73.248;2024-03-06T14:20:52;135.75;;;59.28;;
63818;SDS011;49970;54.976;73.248;2024-03-06T14:23:36;135.63;;;60.17;;
63818;SDS011;49970;54.976;73.248;2024-03-06T14:26:02;170.65;;;75.25;;
63818;SDS011;49970;54.976;73.248;2024-03-06T14:28:29;117.90;;;51.10;;
63818;SDS011;49970;54.976;73.248;2024-03-06T14:30:55;94.25;;;45.30;;
63818;SDS011;49970;54.976;73.248;2024-03-06T14:33:23;110.38;;;45.40;;
63818;SDS011;49970;54.976;73.248;2024-03-06T14:35:49;112.95;;;51.30;;
63818;SDS011;49970;54.976;73.248;2024-03-06T14:38:15;116.50;;;50.80;;
63818;SDS011;49970;54.976;73.248;2024-03-06T14:40:42;102.68;;;52.53;;
63818;SDS011;49970;54.976;73.248;2024-03-06T14:43:09;104.97;;;49.15;;
63818;SDS011;49970;54.976;73.248;2024-03-06T14:45:39;109.57;;;50.95;;
63818;SDS011;49970;54.976;73.248;2024-03-06T14:49:12;103.60;;;49.08;;
63818;SDS011;49970;54.976;73.248;2024-03-06T14:52:44;117.32;;;50.58;;
63818;SDS011;49970;54.976;73.248;2024-03-06T14:56:13;120.32;;;49.80;;
63818;SDS011;49970;54.976;73.248;2024-03-06T14:59:44;115.60;;;51.28;;
63818;SDS011;49970;54.976;73.248;2024-03-06T15:03:15;118.78;;;50.58;;
63818;SDS011;49970;54.976;73.248;2024-03-06T15:07:12;111.18;;;52.55;;
63818;SDS011;49970;54.976;73.248;2024-03-06T15:10:42;120.28;;;53.03;;
63818;SDS011;49970;54.976;73.248;2024-03-06T15:13:09;112.13;;;53.13;;